Park City, UT (84098)

2:00 AM MST on February 07, 2016 (GMT -0700)
Pinebrook Upper Ecker hill | | Change Station
CLOSE
Current Station
Personal Weather Station
Location: Park City, UT
Elevation: 6991 ft
Nearby Weather Stations

Elev 6991 ft 40.73 °N, 111.57 °W | Updated 9 minutes ago

Clear
Clear
28.2 °F
Feels Like 28 °F
N
0.0
Wind Variable Wind from ENE

Today
High -- | Low -- °F
--% Chance of Precip.
Yesterday
High -- | Low -- °F
Precip. -- in
Pressure 30.46 in
Visibility 7.0 miles
Clouds Clear
Windchill 28 °F
Dew Point 17 °F
Humidity 62%
Rainfall 0.00 in
Snow Depth Not available.
7:30 AM 5:50 PM
Waning Crescent, 2% visible
METAR K36U 070835Z AUTO 26003KT 7SM CLR M10/M12 A3046 RMK AO2
Pressure 30.46 in
Visibility 7.0 miles
Clouds Clear
Windchill 28 °F
Dew Point 17 °F
Humidity 62%
Rainfall 0.00 in
Snow Depth Not available.
7:30 AM 5:50 PM
Waning Crescent, 2% visible
METAR K36U 070835Z AUTO 26003KT 7SM CLR M10/M12 A3046 RMK AO2

10-Day Weather Forecast

Almanac

Astronomy

Feb. 07, 2016 Rise Set
Actual Time
Civil Twilight
Nautical Twilight
Astronomical Twilight
Moon
Length of Visible Light
Length of Day
Tomorrow will be .
, % of the Moon is Illuminated

Today's Extremes

State Highs State Lows

Community

WunderPhotos

Upload Photos

1,891,171 photos uploaded!

WunderBlog® & News

Nearby

Air Quality

  Air Quality AQ Index Pollutant
Not available.

Snow Depth

Station Depth Elevation

Earthquake Activity

City Distance Mag. Time & Date
Minimum magnitude displayed is 2.5.

Coastal Water Temperatures

Place Temperature

Stations

Nearby Weather Stations

Station Location Temp. Windchill Dew Point Humidity Wind Precip. Elev Updated Type
                   

Watches & Warnings

There are currently no watches in effect.